sensor_id;sensor_type;location;lat;lon;timestamp;temperature;humidity
58993;DHT22;44782;0.000;0.000;2023-06-10T00:02:10;25.30;52.70
58993;DHT22;44782;0.000;0.000;2023-06-10T00:04:26;25.30;52.80
58993;DHT22;44782;0.000;0.000;2023-06-10T00:06:45;25.30;52.70
58993;DHT22;44782;0.000;0.000;2023-06-10T00:09:07;25.30;52.70
58993;DHT22;44782;0.000;0.000;2023-06-10T00:11:29;25.20;52.80
58993;DHT22;44782;0.000;0.000;2023-06-10T00:13:45;25.30;52.90
58993;DHT22;44782;0.000;0.000;2023-06-10T00:16:00;25.30;53.00
58993;DHT22;44782;0.000;0.000;2023-06-10T00:18:16;25.30;52.90
58993;DHT22;44782;0.000;0.000;2023-06-10T00:20:32;25.30;52.80
58993;DHT22;44782;0.000;0.000;2023-06-10T00:22:55;25.30;52.70
58993;DHT22;44782;0.000;0.000;2023-06-10T00:25:12;25.20;52.50
58993;DHT22;44782;0.000;0.000;2023-06-10T00:27:28;25.20;52.30
58993;DHT22;44782;0.000;0.000;2023-06-10T00:29:46;25.20;52.20
58993;DHT22;44782;0.000;0.000;2023-06-10T00:32:02;25.20;52.00
58993;DHT22;44782;0.000;0.000;2023-06-10T00:34:18;25.20;52.00
58993;DHT22;44782;0.000;0.000;2023-06-10T00:36:33;25.20;51.90
58993;DHT22;44782;0.000;0.000;2023-06-10T00:38:51;25.20;51.70
58993;DHT22;44782;0.000;0.000;2023-06-10T00:41:07;25.20;51.70
58993;DHT22;44782;0.000;0.000;2023-06-10T00:43:23;25.20;51.70
58993;DHT22;44782;0.000;0.000;2023-06-10T00:45:38;25.20;51.70
58993;DHT22;44782;0.000;0.000;2023-06-10T00:47:54;25.20;51.80
58993;DHT22;44782;0.000;0.000;2023-06-10T00:50:10;25.20;51.80
58993;DHT22;44782;0.000;0.000;2023-06-10T00:52:28;25.20;51.80
58993;DHT22;44782;0.000;0.000;2023-06-10T00:54:45;25.10;51.80
58993;DHT22;44782;0.000;0.000;2023-06-10T00:57:01;25.10;51.90
58993;DHT22;44782;0.000;0.000;2023-06-10T00:59:17;25.10;52.00
58993;DHT22;44782;0.000;0.000;2023-06-10T01:01:33;25.10;51.80
58993;DHT22;44782;0.000;0.000;2023-06-10T01:03:50;25.10;51.70
58993;DHT22;44782;0.000;0.000;2023-06-10T01:06:13;25.10;52.00
58993;DHT22;44782;0.000;0.000;2023-06-10T01:08:37;25.10;51.70
58993;DHT22;44782;0.000;0.000;2023-06-10T01:11:01;25.10;51.50
58993;DHT22;44782;0.000;0.000;2023-06-10T01:13:20;25.10;51.60
58993;DHT22;44782;0.000;0.000;2023-06-10T01:15:39;25.10;51.70
58993;DHT22;44782;0.000;0.000;2023-06-10T01:18:00;25.10;51.70
58993;DHT22;44782;0.000;0.000;2023-06-10T01:20:17;25.10;51.60
58993;DHT22;44782;0.000;0.000;2023-06-10T01:22:32;25.10;51.60
58993;DHT22;44782;0.000;0.000;2023-06-10T01:24:52;25.10;51.60
58993;DHT22;44782;0.000;0.000;2023-06-10T01:27:14;25.10;51.50
58993;DHT22;44782;0.000;0.000;2023-06-10T01:29:36;25.10;51.20
58993;DHT22;44782;0.000;0.000;2023-06-10T01:32:03;25.00;51.30
58993;DHT22;44782;0.000;0.000;2023-06-10T01:34:21;25.00;51.30
58993;DHT22;44782;0.000;0.000;2023-06-10T01:36:40;25.00;51.40
58993;DHT22;44782;0.000;0.000;2023-06-10T01:38:56;25.00;51.30
58993;DHT22;44782;0.000;0.000;2023-06-10T01:41:15;25.00;51.30
58993;DHT22;44782;0.000;0.000;2023-06-10T01:43:34;25.00;51.30
58993;DHT22;44782;0.000;0.000;2023-06-10T01:45:50;25.00;51.30
58993;DHT22;44782;0.000;0.000;2023-06-10T01:48:06;25.00;51.30
58993;DHT22;44782;0.000;0.000;2023-06-10T01:50:22;25.00;51.30
58993;DHT22;44782;0.000;0.000;2023-06-10T01:52:38;25.00;51.30
58993;DHT22;44782;0.000;0.000;2023-06-10T01:54:53;25.00;51.30
58993;DHT22;44782;0.000;0.000;2023-06-10T01:57:10;25.00;51.30
58993;DHT22;44782;0.000;0.000;2023-06-10T01:59:25;25.00;51.30
58993;DHT22;44782;0.000;0.000;2023-06-10T02:01:41;25.00;51.20
58993;DHT22;44782;0.000;0.000;2023-06-10T02:03:56;24.90;51.20
58993;DHT22;44782;0.000;0.000;2023-06-10T02:06:12;25.00;51.20
58993;DHT22;44782;0.000;0.000;2023-06-10T02:10:46;24.90;51.20
58993;DHT22;44782;0.000;0.000;2023-06-10T02:13:01;24.90;51.10
58993;DHT22;44782;0.000;0.000;2023-06-10T02:15:17;24.90;51.10
58993;DHT22;44782;0.000;0.000;2023-06-10T02:17:33;24.90;51.10
58993;DHT22;44782;0.000;0.000;2023-06-10T02:19:49;24.90;51.10
58993;DHT22;44782;0.000;0.000;2023-06-10T02:22:09;24.90;51.10
58993;DHT22;44782;0.000;0.000;2023-06-10T02:24:25;24.90;51.00
58993;DHT22;44782;0.000;0.000;2023-06-10T02:26:40;24.90;51.00
58993;DHT22;44782;0.000;0.000;2023-06-10T02:28:56;24.90;51.00
58993;DHT22;44782;0.000;0.000;2023-06-10T02:31:13;24.90;51.00
58993;DHT22;44782;0.000;0.000;2023-06-10T02:33:28;24.90;50.90
58993;DHT22;44782;0.000;0.000;2023-06-10T02:35:44;24.90;50.80
58993;DHT22;44782;0.000;0.000;2023-06-10T02:38:00;24.90;50.90
58993;DHT22;44782;0.000;0.000;2023-06-10T02:40:16;24.90;50.80
58993;DHT22;44782;0.000;0.000;2023-06-10T02:42:31;24.90;50.80
58993;DHT22;44782;0.000;0.000;2023-06-10T02:44:47;24.90;50.80
58993;DHT22;44782;0.000;0.000;2023-06-10T02:47:03;24.90;50.80
58993;DHT22;44782;0.000;0.000;2023-06-10T02:49:19;24.80;50.80
58993;DHT22;44782;0.000;0.000;2023-06-10T02:51:34;24.90;50.90
58993;DHT22;44782;0.000;0.000;2023-06-10T02:53:51;24.90;50.90
58993;DHT22;44782;0.000;0.000;2023-06-10T02:56:06;24.80;50.80
58993;DHT22;44782;0.000;0.000;2023-06-10T02:58:22;24.80;50.80
58993;DHT22;44782;0.000;0.000;2023-06-10T03:00:40;24.80;50.80
58993;DHT22;44782;0.000;0.000;2023-06-10T03:02:56;24.80;50.70
58993;DHT22;44782;0.000;0.000;2023-06-10T03:05:12;24.80;50.70
58993;DHT22;44782;0.000;0.000;2023-06-10T03:07:28;24.80;50.70
58993;DHT22;44782;0.000;0.000;2023-06-10T03:09:44;24.80;50.70
58993;DHT22;44782;0.000;0.000;2023-06-10T03:11:59;24.80;50.70
58993;DHT22;44782;0.000;0.000;2023-06-10T03:14:16;24.80;50.70
58993;DHT22;44782;0.000;0.000;2023-06-10T03:16:31;24.80;50.70
58993;DHT22;44782;0.000;0.000;2023-06-10T03:18:48;24.80;50.70
58993;DHT22;44782;0.000;0.000;2023-06-10T03:21:04;24.80;50.80
58993;DHT22;44782;0.000;0.000;2023-06-10T03:23:19;24.80;50.70
58993;DHT22;44782;0.000;0.000;2023-06-10T03:25:35;24.70;50.60
58993;DHT22;44782;0.000;0.000;2023-06-10T03:27:50;24.70;50.70
58993;DHT22;44782;0.000;0.000;2023-06-10T03:30:07;24.70;50.70
58993;DHT22;44782;0.000;0.000;2023-06-10T03:32:24;24.70;50.60
58993;DHT22;44782;0.000;0.000;2023-06-10T03:34:40;24.70;50.70
58993;DHT22;44782;0.000;0.000;2023-06-10T03:36:57;24.70;50.60
58993;DHT22;44782;0.000;0.000;2023-06-10T03:39:13;24.70;50.60
58993;DHT22;44782;0.000;0.000;2023-06-10T03:41:29;24.70;50.70
58993;DHT22;44782;0.000;0.000;2023-06-10T03:43:45;24.70;50.60
58993;DHT22;44782;0.000;0.000;2023-06-10T03:46:01;24.70;50.60
58993;DHT22;44782;0.000;0.000;2023-06-10T03:48:16;24.70;50.60
58993;DHT22;44782;0.000;0.000;2023-06-10T03:50:32;24.70;50.70
58993;DHT22;44782;0.000;0.000;2023-06-10T03:52:48;24.70;50.70
58993;DHT22;44782;0.000;0.000;2023-06-10T03:55:04;24.70;50.70
58993;DHT22;44782;0.000;0.000;2023-06-10T03:57:20;24.70;50.60
58993;DHT22;44782;0.000;0.000;2023-06-10T03:59:36;24.70;50.70
58993;DHT22;44782;0.000;0.000;2023-06-10T04:01:51;24.60;50.60
58993;DHT22;44782;0.000;0.000;2023-06-10T04:04:07;24.70;50.60
58993;DHT22;44782;0.000;0.000;2023-06-10T04:06:26;24.60;50.60
58993;DHT22;44782;0.000;0.000;2023-06-10T04:08:43;24.60;50.50
58993;DHT22;44782;0.000;0.000;2023-06-10T04:11:00;24.70;51.30
58993;DHT22;44782;0.000;0.000;2023-06-10T04:13:15;24.60;50.50
58993;DHT22;44782;0.000;0.000;2023-06-10T04:15:31;24.60;50.60
58993;DHT22;44782;0.000;0.000;2023-06-10T04:17:50;24.60;50.60
58993;DHT22;44782;0.000;0.000;2023-06-10T04:20:06;24.60;50.60
58993;DHT22;44782;0.000;0.000;2023-06-10T04:22:23;24.60;51.10
58993;DHT22;44782;0.000;0.000;2023-06-10T04:24:39;24.60;50.60
58993;DHT22;44782;0.000;0.000;2023-06-10T04:26:54;24.60;50.70
58993;DHT22;44782;0.000;0.000;2023-06-10T04:29:10;24.60;50.70
58993;DHT22;44782;0.000;0.000;2023-06-10T04:31:26;24.60;50.80
58993;DHT22;44782;0.000;0.000;2023-06-10T04:33:41;24.60;50.80
58993;DHT22;44782;0.000;0.000;2023-06-10T04:35:57;24.60;51.50
58993;DHT22;44782;0.000;0.000;2023-06-10T04:38:13;24.60;50.80
58993;DHT22;44782;0.000;0.000;2023-06-10T04:40:29;24.60;50.90
58993;DHT22;44782;0.000;0.000;2023-06-10T04:42:45;24.60;50.90
58993;DHT22;44782;0.000;0.000;2023-06-10T04:45:01;24.60;50.90
58993;DHT22;44782;0.000;0.000;2023-06-10T04:47:18;24.60;51.00
58993;DHT22;44782;0.000;0.000;2023-06-10T04:49:33;24.60;51.00
58993;DHT22;44782;0.000;0.000;2023-06-10T04:51:49;24.60;51.10
58993;DHT22;44782;0.000;0.000;2023-06-10T04:54:06;24.50;51.00
58993;DHT22;44782;0.000;0.000;2023-06-10T04:56:22;24.50;51.10
58993;DHT22;44782;0.000;0.000;2023-06-10T04:58:38;24.50;51.10
58993;DHT22;44782;0.000;0.000;2023-06-10T05:00:53;24.50;51.10
58993;DHT22;44782;0.000;0.000;2023-06-10T05:03:09;24.50;51.10
58993;DHT22;44782;0.000;0.000;2023-06-10T05:05:25;24.50;51.10
58993;DHT22;44782;0.000;0.000;2023-06-10T05:07:40;24.50;51.10
58993;DHT22;44782;0.000;0.000;2023-06-10T05:09:56;24.50;51.20
58993;DHT22;44782;0.000;0.000;2023-06-10T05:12:12;24.50;51.20
58993;DHT22;44782;0.000;0.000;2023-06-10T05:14:27;24.50;51.30
58993;DHT22;44782;0.000;0.000;2023-06-10T05:16:43;24.50;51.30
58993;DHT22;44782;0.000;0.000;2023-06-10T05:18:58;24.50;51.30
58993;DHT22;44782;0.000;0.000;2023-06-10T05:21:14;24.50;51.40
58993;DHT22;44782;0.000;0.000;2023-06-10T05:23:30;24.50;51.40
58993;DHT22;44782;0.000;0.000;2023-06-10T05:25:46;24.50;51.40
58993;DHT22;44782;0.000;0.000;2023-06-10T05:28:02;24.50;51.50
58993;DHT22;44782;0.000;0.000;2023-06-10T05:30:18;24.50;51.50
58993;DHT22;44782;0.000;0.000;2023-06-10T05:32:34;24.50;51.50
58993;DHT22;44782;0.000;0.000;2023-06-10T05:34:49;24.50;51.50
58993;DHT22;44782;0.000;0.000;2023-06-10T05:37:05;24.50;51.50
58993;DHT22;44782;0.000;0.000;2023-06-10T05:39:24;24.50;51.60
58993;DHT22;44782;0.000;0.000;2023-06-10T05:41:39;24.50;51.60
58993;DHT22;44782;0.000;0.000;2023-06-10T05:43:55;24.50;51.50
58993;DHT22;44782;0.000;0.000;2023-06-10T05:46:11;24.50;51.50
58993;DHT22;44782;0.000;0.000;2023-06-10T05:48:26;24.50;51.50
58993;DHT22;44782;0.000;0.000;2023-06-10T05:50:42;24.50;51.50
58993;DHT22;44782;0.000;0.000;2023-06-10T05:53:03;24.50;51.50
58993;DHT22;44782;0.000;0.000;2023-06-10T05:55:19;24.50;51.50
58993;DHT22;44782;0.000;0.000;2023-06-10T05:57:34;24.50;51.50
58993;DHT22;44782;0.000;0.000;2023-06-10T05:59:50;24.50;51.50
58993;DHT22;44782;0.000;0.000;2023-06-10T06:02:06;24.50;51.60
58993;DHT22;44782;0.000;0.000;2023-06-10T06:04:21;24.50;51.60
58993;DHT22;44782;0.000;0.000;2023-06-10T06:06:38;24.40;51.50
58993;DHT22;44782;0.000;0.000;2023-06-10T06:08:55;24.50;51.60
58993;DHT22;44782;0.000;0.000;2023-06-10T06:11:11;24.40;51.50
58993;DHT22;44782;0.000;0.000;2023-06-10T06:13:26;24.40;51.50
58993;DHT22;44782;0.000;0.000;2023-06-10T06:15:42;24.40;51.50
58993;DHT22;44782;0.000;0.000;2023-06-10T06:17:58;24.40;51.50
58993;DHT22;44782;0.000;0.000;2023-06-10T06:20:13;24.40;51.50
58993;DHT22;44782;0.000;0.000;2023-06-10T06:22:29;24.40;51.50
58993;DHT22;44782;0.000;0.000;2023-06-10T06:24:44;24.40;51.50
58993;DHT22;44782;0.000;0.000;2023-06-10T06:27:00;24.40;51.60
58993;DHT22;44782;0.000;0.000;2023-06-10T06:29:16;24.50;51.60
58993;DHT22;44782;0.000;0.000;2023-06-10T06:31:31;24.40;51.50
58993;DHT22;44782;0.000;0.000;2023-06-10T06:33:47;24.40;51.50
58993;DHT22;44782;0.000;0.000;2023-06-10T06:36:03;24.40;51.50
58993;DHT22;44782;0.000;0.000;2023-06-10T06:38:19;24.40;51.50
58993;DHT22;44782;0.000;0.000;2023-06-10T06:40:34;24.40;51.50
58993;DHT22;44782;0.000;0.000;2023-06-10T06:42:50;24.40;51.50
58993;DHT22;44782;0.000;0.000;2023-06-10T06:45:06;24.40;51.60
58993;DHT22;44782;0.000;0.000;2023-06-10T06:47:22;24.40;51.60
58993;DHT22;44782;0.000;0.000;2023-06-10T06:49:40;24.40;51.60
58993;DHT22;44782;0.000;0.000;2023-06-10T06:51:56;24.40;51.50
58993;DHT22;44782;0.000;0.000;2023-06-10T06:54:12;24.40;51.50
58993;DHT22;44782;0.000;0.000;2023-06-10T06:56:27;24.40;51.60
58993;DHT22;44782;0.000;0.000;2023-06-10T06:58:43;24.40;51.60
58993;DHT22;44782;0.000;0.000;2023-06-10T07:00:59;24.40;51.60
58993;DHT22;44782;0.000;0.000;2023-06-10T07:03:14;24.40;51.60
58993;DHT22;44782;0.000;0.000;2023-06-10T07:05:31;24.40;51.60
58993;DHT22;44782;0.000;0.000;2023-06-10T07:07:46;24.40;51.60
58993;DHT22;44782;0.000;0.000;2023-06-10T07:10:02;24.40;51.70
58993;DHT22;44782;0.000;0.000;2023-06-10T07:12:18;24.40;51.70
58993;DHT22;44782;0.000;0.000;2023-06-10T07:14:34;24.40;51.70
58993;DHT22;44782;0.000;0.000;2023-06-10T07:16:49;24.40;51.70
58993;DHT22;44782;0.000;0.000;2023-06-10T07:19:05;24.40;51.70
58993;DHT22;44782;0.000;0.000;2023-06-10T07:21:21;24.40;51.70
58993;DHT22;44782;0.000;0.000;2023-06-10T07:23:42;24.40;51.70
58993;DHT22;44782;0.000;0.000;2023-06-10T07:26:00;24.40;51.70
58993;DHT22;44782;0.000;0.000;2023-06-10T07:28:20;24.40;51.70
58993;DHT22;44782;0.000;0.000;2023-06-10T07:30:38;24.40;51.70
58993;DHT22;44782;0.000;0.000;2023-06-10T07:32:54;24.40;51.70
58993;DHT22;44782;0.000;0.000;2023-06-10T07:35:21;24.40;51.70
58993;DHT22;44782;0.000;0.000;2023-06-10T07:37:45;24.40;51.70
58993;DHT22;44782;0.000;0.000;2023-06-10T07:40:01;24.40;51.70
58993;DHT22;44782;0.000;0.000;2023-06-10T07:42:19;24.40;51.80
58993;DHT22;44782;0.000;0.000;2023-06-10T07:44:34;24.40;51.80
58993;DHT22;44782;0.000;0.000;2023-06-10T07:46:50;24.40;51.80
58993;DHT22;44782;0.000;0.000;2023-06-10T07:49:08;24.40;51.80
58993;DHT22;44782;0.000;0.000;2023-06-10T07:51:26;24.40;51.80
58993;DHT22;44782;0.000;0.000;2023-06-10T07:53:42;24.40;51.80
58993;DHT22;44782;0.000;0.000;2023-06-10T07:55:58;24.40;51.80
58993;DHT22;44782;0.000;0.000;2023-06-10T07:58:14;24.40;51.80
58993;DHT22;44782;0.000;0.000;2023-06-10T08:00:29;24.40;51.80
58993;DHT22;44782;0.000;0.000;2023-06-10T08:02:45;24.40;52.50
58993;DHT22;44782;0.000;0.000;2023-06-10T08:05:01;24.40;51.90
58993;DHT22;44782;0.000;0.000;2023-06-10T08:07:16;24.40;51.90
58993;DHT22;44782;0.000;0.000;2023-06-10T08:09:33;24.40;51.90
58993;DHT22;44782;0.000;0.000;2023-06-10T08:11:49;24.40;51.90
58993;DHT22;44782;0.000;0.000;2023-06-10T08:14:05;24.40;52.00
58993;DHT22;44782;0.000;0.000;2023-06-10T08:16:20;24.40;52.20
58993;DHT22;44782;0.000;0.000;2023-06-10T08:18:36;24.40;52.50
58993;DHT22;44782;0.000;0.000;2023-06-10T08:20:52;24.50;52.70
58993;DHT22;44782;0.000;0.000;2023-06-10T08:23:10;24.50;52.60
58993;DHT22;44782;0.000;0.000;2023-06-10T08:25:27;24.50;52.60
58993;DHT22;44782;0.000;0.000;2023-06-10T08:27:42;24.50;52.50
58993;DHT22;44782;0.000;0.000;2023-06-10T08:29:58;24.50;52.40
58993;DHT22;44782;0.000;0.000;2023-06-10T08:32:15;24.50;52.50
58993;DHT22;44782;0.000;0.000;2023-06-10T08:34:34;24.50;52.60
58993;DHT22;44782;0.000;0.000;2023-06-10T08:36:50;24.50;52.50
58993;DHT22;44782;0.000;0.000;2023-06-10T08:39:10;24.50;52.50
58993;DHT22;44782;0.000;0.000;2023-06-10T08:41:28;24.50;52.40
58993;DHT22;44782;0.000;0.000;2023-06-10T08:46:24;24.50;52.40
58993;DHT22;44782;0.000;0.000;2023-06-10T08:48:44;24.50;52.50
58993;DHT22;44782;0.000;0.000;2023-06-10T08:51:01;24.50;52.70
58993;DHT22;44782;0.000;0.000;2023-06-10T08:53:18;24.50;52.70
58993;DHT22;44782;0.000;0.000;2023-06-10T08:55:44;24.50;52.70
58993;DHT22;44782;0.000;0.000;2023-06-10T08:58:02;24.50;52.80
58993;DHT22;44782;0.000;0.000;2023-06-10T09:00:18;24.50;52.80
58993;DHT22;44782;0.000;0.000;2023-06-10T09:02:34;24.50;52.80
58993;DHT22;44782;0.000;0.000;2023-06-10T09:04:52;24.50;52.90
58993;DHT22;44782;0.000;0.000;2023-06-10T09:07:08;24.50;53.60
58993;DHT22;44782;0.000;0.000;2023-06-10T09:09:28;24.50;53.00
58993;DHT22;44782;0.000;0.000;2023-06-10T09:11:46;24.50;53.00
58993;DHT22;44782;0.000;0.000;2023-06-10T09:14:02;24.50;53.10
58993;DHT22;44782;0.000;0.000;2023-06-10T09:16:18;24.50;53.20
58993;DHT22;44782;0.000;0.000;2023-06-10T09:18:34;24.50;53.20
58993;DHT22;44782;0.000;0.000;2023-06-10T09:20:50;24.50;53.30
58993;DHT22;44782;0.000;0.000;2023-06-10T09:23:06;24.60;53.40
58993;DHT22;44782;0.000;0.000;2023-06-10T09:25:34;24.50;53.40
58993;DHT22;44782;0.000;0.000;2023-06-10T09:27:53;24.50;53.70
58993;DHT22;44782;0.000;0.000;2023-06-10T09:30:26;24.50;53.60
58993;DHT22;44782;0.000;0.000;2023-06-10T09:32:45;24.60;54.00
58993;DHT22;44782;0.000;0.000;2023-06-10T09:35:09;24.60;53.80
58993;DHT22;44782;0.000;0.000;2023-06-10T09:37:25;24.60;54.10
58993;DHT22;44782;0.000;0.000;2023-06-10T09:39:41;24.60;53.80
58993;DHT22;44782;0.000;0.000;2023-06-10T09:41:57;24.60;53.90
58993;DHT22;44782;0.000;0.000;2023-06-10T09:46:31;24.60;54.00
58993;DHT22;44782;0.000;0.000;2023-06-10T09:48:50;24.60;54.20
58993;DHT22;44782;0.000;0.000;2023-06-10T09:51:09;24.60;54.00
58993;DHT22;44782;0.000;0.000;2023-06-10T09:53:25;24.60;54.10
58993;DHT22;44782;0.000;0.000;2023-06-10T09:55:43;24.60;54.00
58993;DHT22;44782;0.000;0.000;2023-06-10T09:57:59;24.60;54.00
58993;DHT22;44782;0.000;0.000;2023-06-10T10:00:15;24.60;54.10
58993;DHT22;44782;0.000;0.000;2023-06-10T10:02:31;24.60;54.10
58993;DHT22;44782;0.000;0.000;2023-06-10T10:04:47;24.60;54.10
58993;DHT22;44782;0.000;0.000;2023-06-10T10:07:03;24.60;54.10
58993;DHT22;44782;0.000;0.000;2023-06-10T10:09:19;24.60;54.10
58993;DHT22;44782;0.000;0.000;2023-06-10T10:11:35;24.60;54.00
58993;DHT22;44782;0.000;0.000;2023-06-10T10:13:52;24.70;54.10
58993;DHT22;44782;0.000;0.000;2023-06-10T10:16:12;24.70;54.00
58993;DHT22;44782;0.000;0.000;2023-06-10T10:18:31;24.70;54.00
58993;DHT22;44782;0.000;0.000;2023-06-10T10:20:50;24.70;54.00
58993;DHT22;44782;0.000;0.000;2023-06-10T10:23:08;24.70;53.90
58993;DHT22;44782;0.000;0.000;2023-06-10T10:25:29;24.70;53.90
58993;DHT22;44782;0.000;0.000;2023-06-10T10:28:01;24.70;54.00
58993;DHT22;44782;0.000;0.000;2023-06-10T10:30:20;24.80;54.20
58993;DHT22;44782;0.000;0.000;2023-06-10T10:33:00;24.80;54.10
58993;DHT22;44782;0.000;0.000;2023-06-10T10:35:24;24.80;54.50
58993;DHT22;44782;0.000;0.000;2023-06-10T10:37:40;24.70;54.20
58993;DHT22;44782;0.000;0.000;2023-06-10T10:39:57;24.80;54.30
58993;DHT22;44782;0.000;0.000;2023-06-10T10:42:14;24.70;54.30
58993;DHT22;44782;0.000;0.000;2023-06-10T10:44:30;24.80;54.60
58993;DHT22;44782;0.000;0.000;2023-06-10T10:46:50;24.80;54.70
58993;DHT22;44782;0.000;0.000;2023-06-10T10:49:06;24.80;54.90
58993;DHT22;44782;0.000;0.000;2023-06-10T10:51:23;24.80;54.90
58993;DHT22;44782;0.000;0.000;2023-06-10T10:53:40;24.80;54.80
58993;DHT22;44782;0.000;0.000;2023-06-10T10:56:16;24.80;54.90
58993;DHT22;44782;0.000;0.000;2023-06-10T10:58:34;24.80;55.50
58993;DHT22;44782;0.000;0.000;2023-06-10T11:00:50;24.80;55.00
58993;DHT22;44782;0.000;0.000;2023-06-10T11:03:06;24.80;55.00
58993;DHT22;44782;0.000;0.000;2023-06-10T11:05:44;24.80;55.00
58993;DHT22;44782;0.000;0.000;2023-06-10T11:08:03;24.90;55.40
58993;DHT22;44782;0.000;0.000;2023-06-10T11:10:29;24.80;55.10
58993;DHT22;44782;0.000;0.000;2023-06-10T11:15:00;24.80;55.60
58993;DHT22;44782;0.000;0.000;2023-06-10T11:17:20;24.90;55.50
58993;DHT22;44782;0.000;0.000;2023-06-10T11:22:02;25.10;55.40
58993;DHT22;44782;0.000;0.000;2023-06-10T11:24:18;25.20;55.40
58993;DHT22;44782;0.000;0.000;2023-06-10T11:26:34;25.20;55.30
58993;DHT22;44782;0.000;0.000;2023-06-10T11:31:24;25.30;55.40
58993;DHT22;44782;0.000;0.000;2023-06-10T11:33:41;25.30;55.50
58993;DHT22;44782;0.000;0.000;2023-06-10T11:35:57;25.30;55.40
58993;DHT22;44782;0.000;0.000;2023-06-10T11:38:16;25.30;55.40
58993;DHT22;44782;0.000;0.000;2023-06-10T11:40:32;25.20;55.40
58993;DHT22;44782;0.000;0.000;2023-06-10T11:42:48;25.20;55.30
58993;DHT22;44782;0.000;0.000;2023-06-10T11:45:06;25.20;55.40
58993;DHT22;44782;0.000;0.000;2023-06-10T11:47:23;25.20;55.50
58993;DHT22;44782;0.000;0.000;2023-06-10T11:49:39;25.50;55.10
58993;DHT22;44782;0.000;0.000;2023-06-10T11:51:55;25.40;55.30
58993;DHT22;44782;0.000;0.000;2023-06-10T11:54:11;25.30;55.40
58993;DHT22;44782;0.000;0.000;2023-06-10T11:56:28;25.30;55.50
58993;DHT22;44782;0.000;0.000;2023-06-10T11:58:45;25.30;55.50
58993;DHT22;44782;0.000;0.000;2023-06-10T12:01:01;25.20;55.50
58993;DHT22;44782;0.000;0.000;2023-06-10T12:03:17;25.20;55.50
58993;DHT22;44782;0.000;0.000;2023-06-10T12:05:33;25.20;55.50
58993;DHT22;44782;0.000;0.000;2023-06-10T12:07:49;25.20;55.50
58993;DHT22;44782;0.000;0.000;2023-06-10T12:10:05;25.20;55.50
58993;DHT22;44782;0.000;0.000;2023-06-10T12:12:20;25.30;55.60
58993;DHT22;44782;0.000;0.000;2023-06-10T12:17:12;25.30;55.60
58993;DHT22;44782;0.000;0.000;2023-06-10T12:19:27;25.20;55.40
58993;DHT22;44782;0.000;0.000;2023-06-10T12:21:44;25.20;55.40
58993;DHT22;44782;0.000;0.000;2023-06-10T12:24:05;25.30;55.40
58993;DHT22;44782;0.000;0.000;2023-06-10T12:26:34;25.30;55.40
58993;DHT22;44782;0.000;0.000;2023-06-10T12:28:51;25.30;55.40
58993;DHT22;44782;0.000;0.000;2023-06-10T12:31:07;25.20;55.30
58993;DHT22;44782;0.000;0.000;2023-06-10T12:33:23;25.20;55.30
58993;DHT22;44782;0.000;0.000;2023-06-10T12:35:51;25.30;55.40
58993;DHT22;44782;0.000;0.000;2023-06-10T12:38:07;25.30;55.60
58993;DHT22;44782;0.000;0.000;2023-06-10T12:40:30;25.30;55.40
58993;DHT22;44782;0.000;0.000;2023-06-10T12:42:46;25.30;55.60
58993;DHT22;44782;0.000;0.000;2023-06-10T12:45:03;25.30;55.50
58993;DHT22;44782;0.000;0.000;2023-06-10T12:47:19;25.30;55.50
58993;DHT22;44782;0.000;0.000;2023-06-10T12:49:34;25.30;55.40
58993;DHT22;44782;0.000;0.000;2023-06-10T12:51:50;25.30;55.40
58993;DHT22;44782;0.000;0.000;2023-06-10T12:54:06;25.30;55.30
58993;DHT22;44782;0.000;0.000;2023-06-10T12:56:22;25.30;55.30
58993;DHT22;44782;0.000;0.000;2023-06-10T12:58:37;25.30;55.30
58993;DHT22;44782;0.000;0.000;2023-06-10T13:00:53;25.30;55.30
58993;DHT22;44782;0.000;0.000;2023-06-10T13:03:09;25.30;55.40
58993;DHT22;44782;0.000;0.000;2023-06-10T13:05:25;25.30;55.50
58993;DHT22;44782;0.000;0.000;2023-06-10T13:07:41;25.40;55.50
58993;DHT22;44782;0.000;0.000;2023-06-10T13:09:56;25.40;55.50
58993;DHT22;44782;0.000;0.000;2023-06-10T13:12:12;25.40;55.40
58993;DHT22;44782;0.000;0.000;2023-06-10T13:14:28;25.40;55.40
58993;DHT22;44782;0.000;0.000;2023-06-10T13:16:44;25.40;56.10
58993;DHT22;44782;0.000;0.000;2023-06-10T13:19:00;25.40;55.30
58993;DHT22;44782;0.000;0.000;2023-06-10T13:21:18;25.50;55.30
58993;DHT22;44782;0.000;0.000;2023-06-10T13:23:33;25.50;55.30
58993;DHT22;44782;0.000;0.000;2023-06-10T13:25:49;25.50;55.20
58993;DHT22;44782;0.000;0.000;2023-06-10T13:28:04;25.50;55.20
58993;DHT22;44782;0.000;0.000;2023-06-10T13:30:20;25.50;55.20
58993;DHT22;44782;0.000;0.000;2023-06-10T13:32:36;25.50;55.30
58993;DHT22;44782;0.000;0.000;2023-06-10T13:34:52;25.50;55.20
58993;DHT22;44782;0.000;0.000;2023-06-10T13:37:12;25.50;55.20
58993;DHT22;44782;0.000;0.000;2023-06-10T13:39:28;25.60;55.20
58993;DHT22;44782;0.000;0.000;2023-06-10T13:41:43;25.60;55.30
58993;DHT22;44782;0.000;0.000;2023-06-10T13:43:59;25.60;55.30
58993;DHT22;44782;0.000;0.000;2023-06-10T13:46:14;25.60;55.20
58993;DHT22;44782;0.000;0.000;2023-06-10T13:48:30;25.60;55.30
58993;DHT22;44782;0.000;0.000;2023-06-10T13:50:46;25.60;55.20
58993;DHT22;44782;0.000;0.000;2023-06-10T13:53:02;25.60;55.10
58993;DHT22;44782;0.000;0.000;2023-06-10T13:55:17;25.70;55.20
58993;DHT22;44782;0.000;0.000;2023-06-10T13:57:35;25.60;55.20
58993;DHT22;44782;0.000;0.000;2023-06-10T13:59:51;25.70;55.30
58993;DHT22;44782;0.000;0.000;2023-06-10T14:02:07;25.70;55.30
58993;DHT22;44782;0.000;0.000;2023-06-10T14:04:22;25.70;55.30
58993;DHT22;44782;0.000;0.000;2023-06-10T14:06:40;25.70;55.30
58993;DHT22;44782;0.000;0.000;2023-06-10T14:08:56;25.70;55.30
58993;DHT22;44782;0.000;0.000;2023-06-10T14:11:12;25.70;55.30
58993;DHT22;44782;0.000;0.000;2023-06-10T14:13:28;25.70;55.30
58993;DHT22;44782;0.000;0.000;2023-06-10T14:15:44;25.70;55.30
58993;DHT22;44782;0.000;0.000;2023-06-10T14:18:00;25.70;55.30
58993;DHT22;44782;0.000;0.000;2023-06-10T14:20:16;25.80;55.40
58993;DHT22;44782;0.000;0.000;2023-06-10T14:22:32;25.80;55.50
58993;DHT22;44782;0.000;0.000;2023-06-10T14:24:48;25.80;55.50
58993;DHT22;44782;0.000;0.000;2023-06-10T14:27:04;25.80;55.60
58993;DHT22;44782;0.000;0.000;2023-06-10T14:29:20;25.80;55.60
58993;DHT22;44782;0.000;0.000;2023-06-10T14:31:36;25.80;55.60
58993;DHT22;44782;0.000;0.000;2023-06-10T14:33:51;25.80;55.60
58993;DHT22;44782;0.000;0.000;2023-06-10T14:36:07;25.80;55.60
58993;DHT22;44782;0.000;0.000;2023-06-10T14:38:23;25.80;55.70
58993;DHT22;44782;0.000;0.000;2023-06-10T14:40:39;25.80;55.70
58993;DHT22;44782;0.000;0.000;2023-06-10T14:42:55;25.80;55.60
58993;DHT22;44782;0.000;0.000;2023-06-10T14:45:10;25.80;55.60
58993;DHT22;44782;0.000;0.000;2023-06-10T14:47:26;25.80;55.50
58993;DHT22;44782;0.000;0.000;2023-06-10T14:49:43;25.90;55.60
58993;DHT22;44782;0.000;0.000;2023-06-10T14:51:59;25.90;55.50
58993;DHT22;44782;0.000;0.000;2023-06-10T14:54:15;25.90;55.50
58993;DHT22;44782;0.000;0.000;2023-06-10T14:56:30;25.90;55.40